Joao Neiva, Brazil
Current Conditions -  °F | °C
As of 12:00 AM on Saturday 20 Dec 2014 (Local Time) from SBVT Reporting Station
Broken Clouds Broken Clouds  
Wind Chill: 77°   Ceiling: 9000
Heat Index: 79°   Visibility: 6mi
Dew Point: 68°   Wind: 5mph
Humidity: 74%   Direction: 320°NW
Pressure: 29.88"   Gusts: NA
Location:  19.75°S, 40.4°W
Report Text: SBVT 200200Z 32004KT 9999 FEW025 BKN090 25/20 Q1012
Loading
Personal Weather Stations






























Interactive Weather Map New forecast layout! Learn more

10-Day Weather Forecast

Advertisements
Track Severe Weather on mobile